Terminal Aerodrome Forecast
Issued by NWS Grand Forks, ND

Home | Current Version | Previous Version | Graphics & Text | Print | Product List | Glossary On
Versions: 1 2 3 4 5 6 7 8 9 10 11 12 13 14
000
FTUS43 KFGF 031500 AAA
TAFFAR
TAF AMD
KFAR 031505Z 0315/0412 34015G24KT P6SM SCT120
     FM040000 34009KT P6SM SKC=

USA.gov is the U.S. government's official web portal to all federal, state and local government web resources and services.